sensor_id;sensor_type;location;lat;lon;timestamp;temperature;humidity
11246;DHT22;59870;50.106;8.580;2024-03-23T00:51:42;13.30;90.40
11246;DHT22;59870;50.106;8.580;2024-03-23T00:54:28;13.10;90.50
11246;DHT22;59870;50.106;8.580;2024-03-23T00:57:10;13.10;90.50
11246;DHT22;59870;50.106;8.580;2024-03-23T00:59:48;13.10;90.70
11246;DHT22;59870;50.106;8.580;2024-03-23T01:02:59;13.10;90.90
11246;DHT22;59870;50.106;8.580;2024-03-23T01:06:03;13.30;90.90
11246;DHT22;59870;50.106;8.580;2024-03-23T01:08:43;13.10;90.90
11246;DHT22;59870;50.106;8.580;2024-03-23T01:11:30;13.40;91.20
11246;DHT22;59870;50.106;8.580;2024-03-23T01:14:21;13.30;91.20
11246;DHT22;59870;50.106;8.580;2024-03-23T01:16:55;13.10;91.20
11246;DHT22;59870;50.106;8.580;2024-03-23T01:19:28;13.30;91.40
11246;DHT22;59870;50.106;8.580;2024-03-23T01:22:01;13.10;91.40
11246;DHT22;59870;50.106;8.580;2024-03-23T01:24:43;13.10;91.40
11246;DHT22;59870;50.106;8.580;2024-03-23T01:27:20;13.30;91.60
11246;DHT22;59870;50.106;8.580;2024-03-23T01:30:02;13.10;91.50
11246;DHT22;59870;50.106;8.580;2024-03-23T01:32:41;13.10;91.60
11246;DHT22;59870;50.106;8.580;2024-03-23T01:35:41;13.30;91.60
11246;DHT22;59870;50.106;8.580;2024-03-23T01:38:35;13.20;91.60
11246;DHT22;59870;50.106;8.580;2024-03-23T01:41:13;13.20;91.50
11246;DHT22;59870;50.106;8.580;2024-03-23T01:43:49;13.40;91.60
11246;DHT22;59870;50.106;8.580;2024-03-23T01:46:30;13.40;91.70
11246;DHT22;59870;50.106;8.580;2024-03-23T01:49:05;13.00;91.60
11246;DHT22;59870;50.106;8.580;2024-03-23T01:51:43;13.30;91.50
11246;DHT22;59870;50.106;8.580;2024-03-23T01:54:16;13.30;91.60
11246;DHT22;59870;50.106;8.580;2024-03-23T01:56:50;13.20;91.50
11246;DHT22;59870;50.106;8.580;2024-03-23T01:59:48;13.30;91.60
11246;DHT22;59870;50.106;8.580;2024-03-23T02:02:25;13.40;91.70
11246;DHT22;59870;50.106;8.580;2024-03-23T02:05:23;13.30;91.60
11246;DHT22;59870;50.106;8.580;2024-03-23T02:08:02;13.20;91.50
11246;DHT22;59870;50.106;8.580;2024-03-23T02:11:02;13.30;91.60
11246;DHT22;59870;50.106;8.580;2024-03-23T02:14:03;13.20;91.70
11246;DHT22;59870;50.106;8.580;2024-03-23T02:16:47;13.50;91.90
11246;DHT22;59870;50.106;8.580;2024-03-23T02:19:35;13.30;91.70
11246;DHT22;59870;50.106;8.580;2024-03-23T02:22:19;13.40;91.90
11246;DHT22;59870;50.106;8.580;2024-03-23T02:25:00;13.00;91.50
11246;DHT22;59870;50.106;8.580;2024-03-23T02:27:45;13.40;91.90
11246;DHT22;59870;50.106;8.580;2024-03-23T02:30:24;13.20;91.80
11246;DHT22;59870;50.106;8.580;2024-03-23T02:33:05;13.20;91.60
11246;DHT22;59870;50.106;8.580;2024-03-23T02:35:33;13.00;91.90
11246;DHT22;59870;50.106;8.580;2024-03-23T02:38:06;13.10;91.70
11246;DHT22;59870;50.106;8.580;2024-03-23T02:41:16;13.10;91.90
11246;DHT22;59870;50.106;8.580;2024-03-23T02:44:09;13.10;92.00
11246;DHT22;59870;50.106;8.580;2024-03-23T02:46:59;13.10;91.80
11246;DHT22;59870;50.106;8.580;2024-03-23T02:53:10;13.10;92.00
11246;DHT22;59870;50.106;8.580;2024-03-23T02:55:50;13.10;92.10
11246;DHT22;59870;50.106;8.580;2024-03-23T02:58:33;13.10;91.90
11246;DHT22;59870;50.106;8.580;2024-03-23T03:01:12;13.10;92.10
11246;DHT22;59870;50.106;8.580;2024-03-23T03:04:06;13.10;92.30
11246;DHT22;59870;50.106;8.580;2024-03-23T03:06:51;13.30;92.40
11246;DHT22;59870;50.106;8.580;2024-03-23T03:09:28;13.10;92.30
11246;DHT22;59870;50.106;8.580;2024-03-23T03:12:10;13.10;92.20
11246;DHT22;59870;50.106;8.580;2024-03-23T03:14:50;13.10;92.40
11246;DHT22;59870;50.106;8.580;2024-03-23T03:17:20;13.10;92.50
11246;DHT22;59870;50.106;8.580;2024-03-23T03:34:22;13.10;92.60
11246;DHT22;59870;50.106;8.580;2024-03-23T03:36:54;12.80;92.70
11246;DHT22;59870;50.106;8.580;2024-03-23T03:39:25;13.10;92.80
11246;DHT22;59870;50.106;8.580;2024-03-23T03:42:16;13.10;92.90
11246;DHT22;59870;50.106;8.580;2024-03-23T04:26:34;13.00;92.50
11246;DHT22;59870;50.106;8.580;2024-03-23T04:29:13;12.90;92.30
11246;DHT22;59870;50.106;8.580;2024-03-23T04:31:43;12.80;91.90
11246;DHT22;59870;50.106;8.580;2024-03-23T04:34:23;12.90;91.80
11246;DHT22;59870;50.106;8.580;2024-03-23T04:36:57;12.80;91.90
11246;DHT22;59870;50.106;8.580;2024-03-23T04:39:29;12.80;92.10
11246;DHT22;59870;50.106;8.580;2024-03-23T04:42:11;12.60;91.90
11246;DHT22;59870;50.106;8.580;2024-03-23T04:44:55;12.60;92.00
11246;DHT22;59870;50.106;8.580;2024-03-23T04:47:38;12.60;92.10
11246;DHT22;59870;50.106;8.580;2024-03-23T04:50:10;12.50;92.00
11246;DHT22;59870;50.106;8.580;2024-03-23T04:52:52;12.70;91.90
11246;DHT22;59870;50.106;8.580;2024-03-23T04:55:48;12.60;92.00
11246;DHT22;59870;50.106;8.580;2024-03-23T04:58:25;12.70;92.10
11246;DHT22;59870;50.106;8.580;2024-03-23T05:01:00;12.60;91.50
11246;DHT22;59870;50.106;8.580;2024-03-23T05:03:45;12.50;91.80
11246;DHT22;59870;50.106;8.580;2024-03-23T05:10:31;12.50;91.50
11246;DHT22;59870;50.106;8.580;2024-03-23T05:13:16;12.40;91.40
11246;DHT22;59870;50.106;8.580;2024-03-23T05:16:12;12.40;91.40
11246;DHT22;59870;50.106;8.580;2024-03-23T05:18:40;12.60;91.50
11246;DHT22;59870;50.106;8.580;2024-03-23T05:21:30;12.50;91.60
11246;DHT22;59870;50.106;8.580;2024-03-23T05:24:53;12.60;91.50
11246;DHT22;59870;50.106;8.580;2024-03-23T05:28:24;12.60;91.80
11246;DHT22;59870;50.106;8.580;2024-03-23T05:35:27;12.30;91.60
11246;DHT22;59870;50.106;8.580;2024-03-23T05:37:55;12.20;91.60
11246;DHT22;59870;50.106;8.580;2024-03-23T05:40:21;12.20;91.70
11246;DHT22;59870;50.106;8.580;2024-03-23T05:42:50;12.20;91.70
11246;DHT22;59870;50.106;8.580;2024-03-23T05:45:19;12.40;91.90
11246;DHT22;59870;50.106;8.580;2024-03-23T05:47:47;12.10;91.90
11246;DHT22;59870;50.106;8.580;2024-03-23T05:50:14;12.00;91.80
11246;DHT22;59870;50.106;8.580;2024-03-23T05:52:44;12.10;91.90
11246;DHT22;59870;50.106;8.580;2024-03-23T05:55:11;12.10;91.40
11246;DHT22;59870;50.106;8.580;2024-03-23T05:57:38;12.10;91.50
11246;DHT22;59870;50.106;8.580;2024-03-23T06:00:07;12.30;91.70
11246;DHT22;59870;50.106;8.580;2024-03-23T06:02:43;12.00;91.30
11246;DHT22;59870;50.106;8.580;2024-03-23T06:05:11;12.40;91.50
11246;DHT22;59870;50.106;8.580;2024-03-23T06:07:39;12.00;91.10
11246;DHT22;59870;50.106;8.580;2024-03-23T06:10:08;12.00;91.10
11246;DHT22;59870;50.106;8.580;2024-03-23T06:13:05;12.00;91.00
11246;DHT22;59870;50.106;8.580;2024-03-23T06:15:33;12.00;90.80
11246;DHT22;59870;50.106;8.580;2024-03-23T06:18:04;12.40;90.80
11246;DHT22;59870;50.106;8.580;2024-03-23T06:20:34;12.00;90.50
11246;DHT22;59870;50.106;8.580;2024-03-23T06:23:01;12.00;90.60
11246;DHT22;59870;50.106;8.580;2024-03-23T06:25:31;12.40;90.70
11246;DHT22;59870;50.106;8.580;2024-03-23T06:27:58;12.40;90.30
11246;DHT22;59870;50.106;8.580;2024-03-23T06:30:28;11.70;90.10
11246;DHT22;59870;50.106;8.580;2024-03-23T06:32:56;12.00;90.20
11246;DHT22;59870;50.106;8.580;2024-03-23T06:35:23;12.00;90.00
11246;DHT22;59870;50.106;8.580;2024-03-23T06:37:50;12.00;90.10
11246;DHT22;59870;50.106;8.580;2024-03-23T06:40:18;12.40;89.90
11246;DHT22;59870;50.106;8.580;2024-03-23T06:42:46;12.10;89.20
11246;DHT22;59870;50.106;8.580;2024-03-23T06:45:14;12.40;90.10
11246;DHT22;59870;50.106;8.580;2024-03-23T06:47:41;12.10;89.30
11246;DHT22;59870;50.106;8.580;2024-03-23T06:50:10;12.40;89.10
11246;DHT22;59870;50.106;8.580;2024-03-23T06:52:40;12.10;87.80
11246;DHT22;59870;50.106;8.580;2024-03-23T06:55:08;12.10;88.70
11246;DHT22;59870;50.106;8.580;2024-03-23T06:57:38;12.10;88.40
11246;DHT22;59870;50.106;8.580;2024-03-23T07:00:37;11.70;88.50
11246;DHT22;59870;50.106;8.580;2024-03-23T07:03:05;12.00;88.70
11246;DHT22;59870;50.106;8.580;2024-03-23T07:05:34;12.00;86.80
11246;DHT22;59870;50.106;8.580;2024-03-23T07:08:02;12.00;86.80
11246;DHT22;59870;50.106;8.580;2024-03-23T07:10:30;12.00;87.40
11246;DHT22;59870;50.106;8.580;2024-03-23T07:12:59;12.30;87.70
11246;DHT22;59870;50.106;8.580;2024-03-23T07:15:31;11.90;86.70
11246;DHT22;59870;50.106;8.580;2024-03-23T07:18:01;12.20;87.80
11246;DHT22;59870;50.106;8.580;2024-03-23T07:20:29;12.00;88.40
11246;DHT22;59870;50.106;8.580;2024-03-23T07:47:42;12.20;86.60
11246;DHT22;59870;50.106;8.580;2024-03-23T07:51:03;12.00;85.70
11246;DHT22;59870;50.106;8.580;2024-03-23T07:58:14;12.30;85.80
11246;DHT22;59870;50.106;8.580;2024-03-23T08:02:38;12.50;86.30
11246;DHT22;59870;50.106;8.580;2024-03-23T08:24:07;12.30;85.90
11246;DHT22;59870;50.106;8.580;2024-03-23T08:26:41;12.30;86.30
11246;DHT22;59870;50.106;8.580;2024-03-23T08:29:08;12.70;86.60
11246;DHT22;59870;50.106;8.580;2024-03-23T08:31:36;12.40;86.10
11246;DHT22;59870;50.106;8.580;2024-03-23T08:34:03;12.50;86.00
11246;DHT22;59870;50.106;8.580;2024-03-23T08:36:32;12.90;85.60
11246;DHT22;59870;50.106;8.580;2024-03-23T08:38:59;12.90;86.00
11246;DHT22;59870;50.106;8.580;2024-03-23T08:41:29;12.60;84.50
11246;DHT22;59870;50.106;8.580;2024-03-23T08:44:00;12.70;84.40
11246;DHT22;59870;50.106;8.580;2024-03-23T08:46:29;13.00;84.30
11246;DHT22;59870;50.106;8.580;2024-03-23T08:48:56;12.70;84.90
11246;DHT22;59870;50.106;8.580;2024-03-23T08:51:24;13.10;86.70
11246;DHT22;59870;50.106;8.580;2024-03-23T08:53:51;13.30;85.10
11246;DHT22;59870;50.106;8.580;2024-03-23T08:56:20;13.10;84.90
11246;DHT22;59870;50.106;8.580;2024-03-23T08:58:49;13.20;83.70
11246;DHT22;59870;50.106;8.580;2024-03-23T09:01:17;13.30;84.60
11246;DHT22;59870;50.106;8.580;2024-03-23T09:03:44;13.40;84.50
11246;DHT22;59870;50.106;8.580;2024-03-23T09:38:13;15.70;79.50
11246;DHT22;59870;50.106;8.580;2024-03-23T09:40:42;16.20;76.50
11246;DHT22;59870;50.106;8.580;2024-03-23T09:43:09;16.20;75.80
11246;DHT22;59870;50.106;8.580;2024-03-23T09:45:39;17.10;74.50
11246;DHT22;59870;50.106;8.580;2024-03-23T09:48:06;17.30;72.00
11246;DHT22;59870;50.106;8.580;2024-03-23T09:50:36;17.30;68.60
11246;DHT22;59870;50.106;8.580;2024-03-23T09:53:03;17.40;67.80
11246;DHT22;59870;50.106;8.580;2024-03-23T09:55:33;17.40;68.90
11246;DHT22;59870;50.106;8.580;2024-03-23T09:57:59;17.40;68.60
11246;DHT22;59870;50.106;8.580;2024-03-23T10:00:27;17.40;67.80
11246;DHT22;59870;50.106;8.580;2024-03-23T10:02:55;17.70;67.30
11246;DHT22;59870;50.106;8.580;2024-03-23T10:05:24;17.40;64.60
11246;DHT22;59870;50.106;8.580;2024-03-23T10:07:51;17.30;64.20
11246;DHT22;59870;50.106;8.580;2024-03-23T10:10:19;17.50;63.80
11246;DHT22;59870;50.106;8.580;2024-03-23T10:12:49;17.20;63.30
11246;DHT22;59870;50.106;8.580;2024-03-23T10:15:19;17.20;63.30
11246;DHT22;59870;50.106;8.580;2024-03-23T10:17:46;17.10;63.80
11246;DHT22;59870;50.106;8.580;2024-03-23T10:20:19;17.00;62.10
11246;DHT22;59870;50.106;8.580;2024-03-23T10:22:46;17.40;64.60
11246;DHT22;59870;50.106;8.580;2024-03-23T10:25:14;17.20;63.30
11246;DHT22;59870;50.106;8.580;2024-03-23T10:27:42;16.90;63.60
11246;DHT22;59870;50.106;8.580;2024-03-23T10:33:32;16.90;66.60
11246;DHT22;59870;50.106;8.580;2024-03-23T10:43:10;16.90;63.40
11246;DHT22;59870;50.106;8.580;2024-03-23T10:46:16;17.20;63.10
11246;DHT22;59870;50.106;8.580;2024-03-23T11:01:20;16.30;66.50
11246;DHT22;59870;50.106;8.580;2024-03-23T11:03:53;16.20;66.40
11246;DHT22;59870;50.106;8.580;2024-03-23T11:06:35;16.00;66.30
11246;DHT22;59870;50.106;8.580;2024-03-23T11:09:39;15.90;68.00
11246;DHT22;59870;50.106;8.580;2024-03-23T11:12:49;15.70;68.80
11246;DHT22;59870;50.106;8.580;2024-03-23T11:23:41;15.30;66.90
11246;DHT22;59870;50.106;8.580;2024-03-23T11:26:19;15.30;67.60
11246;DHT22;59870;50.106;8.580;2024-03-23T11:28:55;15.20;67.20
11246;DHT22;59870;50.106;8.580;2024-03-23T11:31:48;15.10;68.00
11246;DHT22;59870;50.106;8.580;2024-03-23T11:34:20;15.00;68.80
11246;DHT22;59870;50.106;8.580;2024-03-23T11:37:04;15.00;68.90
11246;DHT22;59870;50.106;8.580;2024-03-23T11:40:23;14.90;69.90
11246;DHT22;59870;50.106;8.580;2024-03-23T11:43:04;14.80;70.50
11246;DHT22;59870;50.106;8.580;2024-03-23T11:45:43;14.80;70.50
11246;DHT22;59870;50.106;8.580;2024-03-23T11:48:16;14.50;70.30
11246;DHT22;59870;50.106;8.580;2024-03-23T11:50:46;14.60;71.00
11246;DHT22;59870;50.106;8.580;2024-03-23T11:53:35;14.60;71.30
11246;DHT22;59870;50.106;8.580;2024-03-23T11:59:56;14.60;73.50
11246;DHT22;59870;50.106;8.580;2024-03-23T12:08:21;14.70;73.20
11246;DHT22;59870;50.106;8.580;2024-03-23T12:30:42;15.00;71.80
11246;DHT22;59870;50.106;8.580;2024-03-23T12:36:49;15.40;68.60
11246;DHT22;59870;50.106;8.580;2024-03-23T12:39:30;15.20;67.80
11246;DHT22;59870;50.106;8.580;2024-03-23T12:42:08;15.50;68.50
11246;DHT22;59870;50.106;8.580;2024-03-23T12:54:46;15.40;67.80
11246;DHT22;59870;50.106;8.580;2024-03-23T12:58:29;15.70;68.60
11246;DHT22;59870;50.106;8.580;2024-03-23T13:01:05;15.80;68.40
11246;DHT22;59870;50.106;8.580;2024-03-23T13:03:36;15.90;66.00
11246;DHT22;59870;50.106;8.580;2024-03-23T13:06:17;16.10;65.70
11246;DHT22;59870;50.106;8.580;2024-03-23T13:08:51;16.20;66.10
11246;DHT22;59870;50.106;8.580;2024-03-23T13:11:22;16.10;64.00
11246;DHT22;59870;50.106;8.580;2024-03-23T13:13:53;16.10;63.60
11246;DHT22;59870;50.106;8.580;2024-03-23T13:17:13;15.70;65.10
11246;DHT22;59870;50.106;8.580;2024-03-23T13:19:53;15.80;68.10
11246;DHT22;59870;50.106;8.580;2024-03-23T13:45:44;14.70;77.80
11246;DHT22;59870;50.106;8.580;2024-03-23T13:50:15;14.50;77.10
11246;DHT22;59870;50.106;8.580;2024-03-23T13:57:28;14.50;75.90
11246;DHT22;59870;50.106;8.580;2024-03-23T14:00:55;14.70;75.50
11246;DHT22;59870;50.106;8.580;2024-03-23T14:05:02;14.50;74.00
11246;DHT22;59870;50.106;8.580;2024-03-23T14:11:30;14.70;75.50
11246;DHT22;59870;50.106;8.580;2024-03-23T14:14:11;14.70;75.10
11246;DHT22;59870;50.106;8.580;2024-03-23T14:17:30;14.60;75.00
11246;DHT22;59870;50.106;8.580;2024-03-23T14:20:24;14.80;75.00
11246;DHT22;59870;50.106;8.580;2024-03-23T14:24:30;14.70;75.80
11246;DHT22;59870;50.106;8.580;2024-03-23T15:10:05;14.50;74.00
11246;DHT22;59870;50.106;8.580;2024-03-23T15:12:34;14.50;74.40
11246;DHT22;59870;50.106;8.580;2024-03-23T15:15:01;14.50;73.80
11246;DHT22;59870;50.106;8.580;2024-03-23T15:17:29;14.20;73.40
11246;DHT22;59870;50.106;8.580;2024-03-23T15:20:00;14.50;74.90
11246;DHT22;59870;50.106;8.580;2024-03-23T15:22:28;14.70;74.30
11246;DHT22;59870;50.106;8.580;2024-03-23T15:24:55;14.60;74.50
11246;DHT22;59870;50.106;8.580;2024-03-23T15:27:24;14.50;73.10
11246;DHT22;59870;50.106;8.580;2024-03-23T15:29:51;14.50;72.90
11246;DHT22;59870;50.106;8.580;2024-03-23T15:32:19;14.70;73.80
11246;DHT22;59870;50.106;8.580;2024-03-23T15:34:46;14.70;73.30
11246;DHT22;59870;50.106;8.580;2024-03-23T15:37:14;14.80;73.10
11246;DHT22;59870;50.106;8.580;2024-03-23T15:39:41;14.50;73.00
11246;DHT22;59870;50.106;8.580;2024-03-23T15:42:09;14.50;72.10
11246;DHT22;59870;50.106;8.580;2024-03-23T15:44:38;14.40;73.10
11246;DHT22;59870;50.106;8.580;2024-03-23T15:47:06;14.20;74.30
11246;DHT22;59870;50.106;8.580;2024-03-23T15:49:32;14.10;75.00
11246;DHT22;59870;50.106;8.580;2024-03-23T15:52:00;14.10;76.60
11246;DHT22;59870;50.106;8.580;2024-03-23T15:54:27;13.70;76.80
11246;DHT22;59870;50.106;8.580;2024-03-23T15:56:55;13.60;77.30
11246;DHT22;59870;50.106;8.580;2024-03-23T15:59:25;13.50;78.30
11246;DHT22;59870;50.106;8.580;2024-03-23T16:01:54;13.60;77.40
11246;DHT22;59870;50.106;8.580;2024-03-23T16:04:21;13.40;78.20
11246;DHT22;59870;50.106;8.580;2024-03-23T16:06:50;13.30;77.90
11246;DHT22;59870;50.106;8.580;2024-03-23T16:09:20;13.50;76.20
11246;DHT22;59870;50.106;8.580;2024-03-23T16:11:49;13.20;75.60
11246;DHT22;59870;50.106;8.580;2024-03-23T16:14:16;13.40;74.10
11246;DHT22;59870;50.106;8.580;2024-03-23T16:16:44;13.20;74.20
11246;DHT22;59870;50.106;8.580;2024-03-23T16:19:13;13.10;74.40
11246;DHT22;59870;50.106;8.580;2024-03-23T16:21:44;13.30;74.60
11246;DHT22;59870;50.106;8.580;2024-03-23T16:24:14;13.10;75.30
11246;DHT22;59870;50.106;8.580;2024-03-23T16:26:42;13.00;74.20
11246;DHT22;59870;50.106;8.580;2024-03-23T16:29:17;13.20;76.20
11246;DHT22;59870;50.106;8.580;2024-03-23T16:31:45;13.20;76.40
11246;DHT22;59870;50.106;8.580;2024-03-23T16:34:14;13.00;75.80
11246;DHT22;59870;50.106;8.580;2024-03-23T16:36:49;13.00;76.50
11246;DHT22;59870;50.106;8.580;2024-03-23T16:39:22;13.00;77.40
11246;DHT22;59870;50.106;8.580;2024-03-23T16:41:55;12.90;77.60
11246;DHT22;59870;50.106;8.580;2024-03-23T16:44:22;12.80;77.50
11246;DHT22;59870;50.106;8.580;2024-03-23T16:46:50;13.00;78.00
11246;DHT22;59870;50.106;8.580;2024-03-23T16:49:19;12.80;78.10
11246;DHT22;59870;50.106;8.580;2024-03-23T16:51:47;12.80;77.70
11246;DHT22;59870;50.106;8.580;2024-03-23T16:54:16;12.80;78.30
11246;DHT22;59870;50.106;8.580;2024-03-23T16:56:44;13.00;78.30
11246;DHT22;59870;50.106;8.580;2024-03-23T16:59:11;13.00;78.20
11246;DHT22;59870;50.106;8.580;2024-03-23T17:01:39;12.70;78.10
11246;DHT22;59870;50.106;8.580;2024-03-23T17:04:10;12.80;77.70
11246;DHT22;59870;50.106;8.580;2024-03-23T17:06:40;13.00;78.00
11246;DHT22;59870;50.106;8.580;2024-03-23T17:09:06;12.80;77.10
11246;DHT22;59870;50.106;8.580;2024-03-23T17:11:36;12.80;77.30
11246;DHT22;59870;50.106;8.580;2024-03-23T17:14:03;12.80;76.90
11246;DHT22;59870;50.106;8.580;2024-03-23T17:16:31;12.80;77.10
11246;DHT22;59870;50.106;8.580;2024-03-23T17:18:59;12.70;76.30
11246;DHT22;59870;50.106;8.580;2024-03-23T17:21:27;12.70;77.30
11246;DHT22;59870;50.106;8.580;2024-03-23T17:23:55;12.60;77.60
11246;DHT22;59870;50.106;8.580;2024-03-23T17:26:25;12.80;77.30
11246;DHT22;59870;50.106;8.580;2024-03-23T17:28:52;12.60;77.40
11246;DHT22;59870;50.106;8.580;2024-03-23T17:31:20;12.70;76.60
11246;DHT22;59870;50.106;8.580;2024-03-23T17:33:49;12.70;76.70
11246;DHT22;59870;50.106;8.580;2024-03-23T17:36:17;12.50;76.30
11246;DHT22;59870;50.106;8.580;2024-03-23T17:38:55;12.60;76.80
11246;DHT22;59870;50.106;8.580;2024-03-23T17:41:23;12.70;77.50
11246;DHT22;59870;50.106;8.580;2024-03-23T17:43:52;12.50;78.50
11246;DHT22;59870;50.106;8.580;2024-03-23T17:46:20;12.40;78.40
11246;DHT22;59870;50.106;8.580;2024-03-23T17:48:49;12.50;78.40
11246;DHT22;59870;50.106;8.580;2024-03-23T17:51:22;12.20;79.00
11246;DHT22;59870;50.106;8.580;2024-03-23T17:53:49;12.10;79.70
11246;DHT22;59870;50.106;8.580;2024-03-23T17:56:18;12.00;80.00
11246;DHT22;59870;50.106;8.580;2024-03-23T17:58:48;11.90;79.80
11246;DHT22;59870;50.106;8.580;2024-03-23T18:01:16;12.00;80.90
11246;DHT22;59870;50.106;8.580;2024-03-23T18:03:45;11.70;80.20
11246;DHT22;59870;50.106;8.580;2024-03-23T18:06:14;11.60;81.20
11246;DHT22;59870;50.106;8.580;2024-03-23T18:08:41;11.50;81.30
11246;DHT22;59870;50.106;8.580;2024-03-23T18:11:09;11.50;82.10
11246;DHT22;59870;50.106;8.580;2024-03-23T18:13:38;11.40;82.20
11246;DHT22;59870;50.106;8.580;2024-03-23T18:16:06;11.40;82.90
11246;DHT22;59870;50.106;8.580;2024-03-23T18:18:33;11.30;82.70
11246;DHT22;59870;50.106;8.580;2024-03-23T18:21:02;11.30;82.40
11246;DHT22;59870;50.106;8.580;2024-03-23T18:23:29;11.30;82.20
11246;DHT22;59870;50.106;8.580;2024-03-23T18:25:57;11.40;81.80
11246;DHT22;59870;50.106;8.580;2024-03-23T18:28:25;11.40;81.70
11246;DHT22;59870;50.106;8.580;2024-03-23T18:30:58;11.10;81.80
11246;DHT22;59870;50.106;8.580;2024-03-23T18:33:25;11.10;81.90
11246;DHT22;59870;50.106;8.580;2024-03-23T18:35:53;11.10;82.10
11246;DHT22;59870;50.106;8.580;2024-03-23T18:38:21;11.30;82.30
11246;DHT22;59870;50.106;8.580;2024-03-23T18:40:48;11.30;81.60
11246;DHT22;59870;50.106;8.580;2024-03-23T18:46:30;11.00;82.30
11246;DHT22;59870;50.106;8.580;2024-03-23T18:49:00;11.00;82.40
11246;DHT22;59870;50.106;8.580;2024-03-23T18:51:30;11.10;82.20
11246;DHT22;59870;50.106;8.580;2024-03-23T18:54:26;11.10;82.10
11246;DHT22;59870;50.106;8.580;2024-03-23T18:56:53;10.60;81.60
11246;DHT22;59870;50.106;8.580;2024-03-23T18:59:23;10.80;82.00
11246;DHT22;59870;50.106;8.580;2024-03-23T19:01:56;10.70;82.10
11246;DHT22;59870;50.106;8.580;2024-03-23T19:04:28;10.80;82.50
11246;DHT22;59870;50.106;8.580;2024-03-23T19:07:20;10.80;83.10
11246;DHT22;59870;50.106;8.580;2024-03-23T19:10:18;10.60;83.00
11246;DHT22;59870;50.106;8.580;2024-03-23T19:12:48;10.50;83.90
11246;DHT22;59870;50.106;8.580;2024-03-23T19:15:18;10.50;84.10
11246;DHT22;59870;50.106;8.580;2024-03-23T19:17:50;10.70;84.60
11246;DHT22;59870;50.106;8.580;2024-03-23T19:20:26;10.50;84.80
11246;DHT22;59870;50.106;8.580;2024-03-23T19:22:55;10.40;84.40
11246;DHT22;59870;50.106;8.580;2024-03-23T19:26:49;10.70;85.40
11246;DHT22;59870;50.106;8.580;2024-03-23T19:29:20;10.50;84.20
11246;DHT22;59870;50.106;8.580;2024-03-23T19:31:49;10.50;84.20
11246;DHT22;59870;50.106;8.580;2024-03-23T19:34:20;10.20;83.80
11246;DHT22;59870;50.106;8.580;2024-03-23T19:36:49;10.40;83.70
11246;DHT22;59870;50.106;8.580;2024-03-23T19:39:20;10.60;84.20
11246;DHT22;59870;50.106;8.580;2024-03-23T19:41:49;10.40;83.60
11246;DHT22;59870;50.106;8.580;2024-03-23T19:44:19;10.40;84.00
11246;DHT22;59870;50.106;8.580;2024-03-23T19:46:47;10.10;83.80
11246;DHT22;59870;50.106;8.580;2024-03-23T19:49:16;10.30;84.30
11246;DHT22;59870;50.106;8.580;2024-03-23T19:51:47;10.10;84.70
11246;DHT22;59870;50.106;8.580;2024-03-23T19:54:17;10.50;85.00
11246;DHT22;59870;50.106;8.580;2024-03-23T19:56:44;10.50;85.20
11246;DHT22;59870;50.106;8.580;2024-03-23T19:59:39;10.30;85.60
11246;DHT22;59870;50.106;8.580;2024-03-23T20:02:31;10.20;85.20
11246;DHT22;59870;50.106;8.580;2024-03-23T20:05:26;10.50;86.30
11246;DHT22;59870;50.106;8.580;2024-03-23T20:08:47;10.30;86.90
11246;DHT22;59870;50.106;8.580;2024-03-23T20:26:31;10.10;87.00
11246;DHT22;59870;50.106;8.580;2024-03-23T20:46:04;9.90;87.90
11246;DHT22;59870;50.106;8.580;2024-03-23T20:49:18;9.90;88.20
11246;DHT22;59870;50.106;8.580;2024-03-23T20:52:16;9.80;87.90
11246;DHT22;59870;50.106;8.580;2024-03-23T20:54:59;9.70;88.60
11246;DHT22;59870;50.106;8.580;2024-03-23T20:57:53;9.70;88.10
